Etusivu
METAR-TAF:

METAR-TAF

Lentoasemat :

Natchitoches Regional Airport

Natchitoches, Louisiana, Yhdysvallat

Leveyspiiri: 31-44-09N, Pituuspiiri: 093-05-57W, korkeus merenpinnasta: 37 m

Tämänhetkinen sää

Tämä raportti tehtiin 13 minuuttia sitten, kello 15.35 UTC
Tuuli 11 kn pohjoisesta/koillisesta puuskistuen 18 kn:hen
Lämpötila 11°C
Kosteus 100%
Ilmanpaine 1021 hPa
Näkyvyys: 16.1 km
Hajonneita pilviä 800 ft:n korkeudessa
Pilvistä 1900 ft:n korkeudessa
heikkoa tihkusadetta

METAR: KIER 011535Z AUTO 02011G18KT 10SM -DZ BKN008 OVC019 11/11 A3016 RMK AO2 P0002 T01080105

Aika: 09:48 (15:48 UTC)


TAF: puuttuu

Säähavainnot ja -ennusteet yli 4000 lentoasemalta (METAR- ja TAF-raportit).

Käytössä olevat sääasemat on merkitty karttaan keltaisilla ja punaisilla pisteillä.

Aseta hiiri pisteen päälle nähdäksesi sääaseman nimen.

Klikkaa sitten nähdäksesi säähavainnot ja -ennusteet.

Kartan vaihtaminen: klikkaa mustalla rastilla varustettuja vihreitä pisteitä, niin voit zoomata sisään; viivalla varustettua vihreää pistettä, niin voit zoomata ulos tai vihreitä nuolia, niin pääset viereisille kartoille.


METAR-TAF: